Time;durP1;ratioP1;P1;durP2;ratioP2;P2;SDS_P1;SDS_P2;PMS_P1;PMS_P2;Temp;Humidity;BMP_temperature;BMP_pressure;BME280_temperature;BME280_humidity;BME280_pressure;Samples;Min_cycle;Max_cycle;Signal;HPM_P1;HPM_P2
2022/06/26 00:00:24;;;;;;;7.75;5.40;;;19.20;99.90;;;;;;4979063;28;20038;-74
2022/06/26 00:02:50;;;;;;;10.30;5.72;;;19.20;99.90;;;;;;4979009;28;20048;-74
2022/06/26 00:05:15;;;;;;;9.15;5.97;;;19.20;99.90;;;;;;4979181;28;20042;-74
2022/06/26 00:07:41;;;;;;;10.90;5.93;;;19.20;99.90;;;;;;4962841;28;20149;-74
2022/06/26 00:10:07;;;;;;;7.75;5.90;;;19.20;99.90;;;;;;4979102;28;20046;-74
2022/06/26 00:12:34;;;;;;;9.88;5.60;;;19.20;99.90;;;;;;4978784;28;20044;-74
2022/06/26 00:14:59;;;;;;;7.00;5.50;;;19.20;99.90;;;;;;4963801;28;20038;-74
2022/06/26 00:17:25;;;;;;;12.20;5.30;;;19.20;99.90;;;;;;4962539;28;20422;-74
2022/06/26 00:19:51;;;;;;;9.10;5.53;;;19.20;99.90;;;;;;4978752;28;20034;-73
2022/06/26 00:22:17;;;;;;;9.65;6.25;;;19.10;99.90;;;;;;4978627;28;20129;-73
2022/06/26 00:24:43;;;;;;;10.35;5.80;;;19.20;99.90;;;;;;4962619;28;20042;-74
2022/06/26 00:27:08;;;;;;;9.20;5.50;;;19.20;99.90;;;;;;4962355;28;20038;-74
2022/06/26 00:29:34;;;;;;;9.25;5.40;;;19.20;99.90;;;;;;4962438;28;20111;-74
2022/06/26 00:32:04;;;;;;;9.27;5.40;;;19.20;99.90;;;;;;4962299;28;20038;-74
2022/06/26 00:34:29;;;;;;;9.65;5.30;;;19.20;99.90;;;;;;4994850;28;20077;-74
2022/06/26 00:36:55;;;;;;;6.65;5.20;;;19.20;99.90;;;;;;4995106;28;20065;-74
2022/06/26 00:39:21;;;;;;;7.90;5.53;;;19.20;99.90;;;;;;4978316;28;20069;-74
2022/06/26 00:41:47;;;;;;;10.60;5.72;;;19.20;99.90;;;;;;4978237;28;20046;-74
2022/06/26 00:44:17;;;;;;;8.88;5.65;;;19.20;99.90;;;;;;4978308;28;20043;-74
2022/06/26 00:46:44;;;;;;;9.88;5.30;;;19.10;99.90;;;;;;4993507;28;20125;-74
2022/06/26 00:49:10;;;;;;;7.53;5.18;;;19.10;99.90;;;;;;4994346;28;20034;-74
2022/06/26 00:51:43;;;;;;;7.53;5.10;;;19.10;99.90;;;;;;4961951;28;20046;-74
2022/06/26 00:54:10;;;;;;;10.10;5.57;;;19.10;99.90;;;;;;4994483;28;20142;-74
2022/06/26 00:56:36;;;;;;;8.27;5.80;;;19.00;99.90;;;;;;4977951;28;20522;-74
2022/06/26 00:59:03;;;;;;;8.82;5.93;;;19.00;99.90;;;;;;4977989;28;20042;-73
2022/06/26 01:01:29;;;;;;;11.95;9.50;;;18.90;99.90;;;;;;4961768;28;20045;-73
2022/06/26 01:03:55;;;;;;;13.75;9.18;;;18.80;99.90;;;;;;4977833;28;20034;-73
2022/06/26 01:06:20;;;;;;;13.23;7.82;;;18.70;99.90;;;;;;4978029;28;20101;-73
2022/06/26 01:08:46;;;;;;;8.80;7.53;;;18.80;99.90;;;;;;4978030;28;20499;-73
2022/06/26 01:11:18;;;;;;;9.27;7.93;;;18.90;99.90;;;;;;4993849;28;20470;-73
2022/06/26 01:13:46;;;;;;;20.73;9.00;;;19.00;99.90;;;;;;4977756;28;20438;-73
2022/06/26 01:16:13;;;;;;;9.52;8.40;;;19.00;99.90;;;;;;4993767;28;20489;-73
2022/06/26 01:18:39;;;;;;;11.50;8.77;;;19.10;99.90;;;;;;4961667;28;20074;-73
2022/06/26 01:21:05;;;;;;;9.73;8.27;;;19.10;99.90;;;;;;4977415;28;20042;-72
2022/06/26 01:23:31;;;;;;;11.95;8.95;;;19.10;99.90;;;;;;4961490;28;20038;-73
2022/06/26 01:25:57;;;;;;;13.20;8.65;;;19.00;99.90;;;;;;4977647;28;20042;-74
2022/06/26 01:28:22;;;;;;;9.27;7.60;;;19.00;99.90;;;;;;4977406;28;20458;-74
2022/06/26 01:30:48;;;;;;;10.05;8.85;;;19.00;99.90;;;;;;4977548;28;20034;-74
2022/06/26 01:33:14;;;;;;;15.35;8.70;;;19.00;99.90;;;;;;4977371;28;20458;-74
2022/06/26 01:35:39;;;;;;;11.30;8.52;;;19.00;99.90;;;;;;4961229;28;20125;-74
2022/06/26 01:38:13;;;;;;;11.40;8.45;;;19.00;99.90;;;;;;4977218;28;20038;-73
2022/06/26 01:40:39;;;;;;;10.02;7.47;;;19.00;99.90;;;;;;4961514;28;20125;-73
2022/06/26 01:43:04;;;;;;;8.93;7.50;;;19.00;99.90;;;;;;4993496;28;20482;-74
2022/06/26 01:45:30;;;;;;;11.48;7.93;;;19.00;99.90;;;;;;4977033;28;20065;-74
2022/06/26 01:47:56;;;;;;;15.93;8.40;;;19.00;99.90;;;;;;4977097;28;20042;-74
2022/06/26 01:50:21;;;;;;;10.77;7.38;;;19.10;99.90;;;;;;4976989;28;20035;-74
2022/06/26 01:52:47;;;;;;;12.77;7.40;;;19.10;99.90;;;;;;4960992;28;20126;-74
2022/06/26 01:55:12;;;;;;;12.52;7.68;;;19.10;99.90;;;;;;4960885;28;20041;-74
2022/06/26 01:57:38;;;;;;;13.90;8.30;;;19.10;99.90;;;;;;4976957;28;20088;-74
2022/06/26 02:00:06;;;;;;;13.55;8.82;;;19.10;99.90;;;;;;4976844;28;20040;-74
2022/06/26 02:02:31;;;;;;;11.80;7.85;;;19.10;99.90;;;;;;4992979;28;20045;-74
2022/06/26 02:04:58;;;;;;;11.70;8.73;;;19.10;99.90;;;;;;4976780;28;20046;-74
2022/06/26 02:07:25;;;;;;;15.48;9.00;;;19.10;99.90;;;;;;4960666;28;20046;-74
2022/06/26 02:15:19;;;;;;;14.30;9.43;;;18.90;99.90;;;;;;4976739;28;20082;-74
2022/06/26 02:17:45;;;;;;;20.10;11.50;;;18.80;99.90;;;;;;4976905;28;20073;-75
2022/06/26 02:20:11;;;;;;;16.55;10.73;;;18.90;99.90;;;;;;4960389;28;20045;-75
2022/06/26 02:22:36;;;;;;;18.05;11.60;;;18.90;99.90;;;;;;4976605;28;20050;-75
2022/06/26 02:25:04;;;;;;;16.80;11.00;;;18.80;99.90;;;;;;4976513;28;20100;-75
2022/06/26 02:27:29;;;;;;;13.93;8.98;;;18.80;99.90;;;;;;4960288;28;20439;-75
2022/06/26 02:29:55;;;;;;;12.93;9.95;;;18.80;99.90;;;;;;4976367;28;20042;-75
2022/06/26 02:32:21;;;;;;;10.23;8.73;;;18.80;99.90;;;;;;4976236;28;20128;-75
2022/06/26 02:34:46;;;;;;;12.95;8.32;;;18.80;99.90;;;;;;4976843;28;20109;-75
2022/06/26 02:37:12;;;;;;;12.40;8.18;;;18.80;99.90;;;;;;4976352;28;20566;-75
2022/06/26 02:39:38;;;;;;;12.18;8.77;;;18.80;99.90;;;;;;4976444;28;20042;-75
2022/06/26 02:42:04;;;;;;;13.50;8.32;;;18.80;99.90;;;;;;4976515;28;20038;-75
2022/06/26 02:44:30;;;;;;;10.85;7.82;;;18.80;99.90;;;;;;4976497;28;20506;-75
2022/06/26 02:46:56;;;;;;;11.02;8.48;;;18.70;99.90;;;;;;4976451;28;20392;-75
2022/06/26 02:49:21;;;;;;;13.60;9.23;;;18.70;99.90;;;;;;4976245;28;20505;-75
2022/06/26 02:51:47;;;;;;;16.50;9.60;;;18.70;99.90;;;;;;4975990;28;20125;-75
2022/06/26 02:54:13;;;;;;;11.02;8.07;;;18.60;99.90;;;;;;4976478;28;20077;-75
2022/06/26 02:56:38;;;;;;;12.27;9.00;;;18.60;99.90;;;;;;4960121;28;20034;-74
2022/06/26 02:59:04;;;;;;;15.23;8.75;;;18.50;99.90;;;;;;4976123;28;20070;-74
2022/06/26 03:01:30;;;;;;;11.43;8.43;;;18.50;99.90;;;;;;4976103;28;20042;-74
2022/06/26 03:03:55;;;;;;;10.02;7.93;;;18.50;99.90;;;;;;4976255;28;20046;-74
2022/06/26 03:06:21;;;;;;;12.50;7.57;;;18.50;99.90;;;;;;4976113;28;20045;-74
2022/06/26 03:08:47;;;;;;;10.85;8.85;;;18.50;99.90;;;;;;4975922;28;20038;-74
2022/06/26 03:11:12;;;;;;;11.23;7.60;;;18.40;99.90;;;;;;4978519;28;20077;-74
2022/06/26 03:13:38;;;;;;;13.27;8.68;;;18.40;99.90;;;;;;4979869;28;20487;-75
2022/06/26 03:16:04;;;;;;;12.60;8.00;;;18.30;99.90;;;;;;4979814;28;20045;-75
2022/06/26 03:18:29;;;;;;;9.95;7.15;;;18.30;99.90;;;;;;4979734;28;20053;-75
2022/06/26 03:20:55;;;;;;;10.30;6.25;;;18.30;99.90;;;;;;4979914;28;20035;-75
2022/06/26 03:23:20;;;;;;;10.40;6.20;;;18.20;99.90;;;;;;4979674;28;20525;-74
2022/06/26 03:25:46;;;;;;;7.22;5.32;;;18.20;99.90;;;;;;4979861;28;20046;-74
2022/06/26 03:28:11;;;;;;;7.88;5.18;;;18.10;99.90;;;;;;4979479;28;20129;-74
2022/06/26 03:30:37;;;;;;;11.32;5.70;;;18.10;99.90;;;;;;4979974;28;20034;-74
2022/06/26 03:33:03;;;;;;;7.85;5.07;;;18.10;99.90;;;;;;4963567;28;20037;-74
2022/06/26 03:35:28;;;;;;;7.97;5.07;;;18.10;99.90;;;;;;4963561;28;20065;-74
2022/06/26 03:37:55;;;;;;;8.60;4.90;;;18.00;99.90;;;;;;4963772;28;20034;-74
2022/06/26 03:40:20;;;;;;;8.70;5.38;;;18.00;99.90;;;;;;4979342;28;20042;-74
2022/06/26 03:42:47;;;;;;;6.78;4.63;;;18.00;99.90;;;;;;4979342;28;20038;-74
2022/06/26 03:45:13;;;;;;;8.18;4.95;;;18.00;99.90;;;;;;4963399;28;20122;-74
2022/06/26 03:47:39;;;;;;;6.88;4.53;;;17.90;99.90;;;;;;4963108;28;20128;-74
2022/06/26 03:50:06;;;;;;;6.70;3.95;;;17.90;99.90;;;;;;4979181;28;20459;-74
2022/06/26 03:52:31;;;;;;;7.38;3.83;;;17.90;99.90;;;;;;4963414;28;20041;-74
2022/06/26 03:54:57;;;;;;;5.80;3.70;;;17.80;99.90;;;;;;4979130;28;20169;-74
2022/06/26 03:57:22;;;;;;;6.15;3.30;;;17.90;99.90;;;;;;4963294;28;20042;-74
2022/06/26 03:59:48;;;;;;;5.38;3.40;;;17.80;99.90;;;;;;4963401;28;20077;-74
2022/06/26 04:02:14;;;;;;;5.55;3.75;;;17.70;99.90;;;;;;4963144;28;20491;-74
2022/06/26 04:04:39;;;;;;;4.70;2.75;;;17.70;99.90;;;;;;4978977;28;20523;-74
2022/06/26 04:07:05;;;;;;;4.93;3.17;;;17.80;99.90;;;;;;4963213;28;20069;-74
2022/06/26 04:09:31;;;;;;;6.00;3.30;;;17.70;99.90;;;;;;4978886;28;20465;-74
2022/06/26 04:11:57;;;;;;;6.55;2.90;;;17.70;99.90;;;;;;4978793;28;20128;-74
2022/06/26 04:14:22;;;;;;;6.70;2.85;;;17.70;99.90;;;;;;4979078;28;20052;-74
2022/06/26 04:16:48;;;;;;;4.35;2.95;;;17.70;99.90;;;;;;4978947;28;20411;-74
2022/06/26 04:19:13;;;;;;;4.60;2.78;;;17.70;99.90;;;;;;4978934;28;20402;-74
2022/06/26 04:21:39;;;;;;;4.40;2.80;;;17.70;99.90;;;;;;4977432;28;20035;-74
2022/06/26 04:24:05;;;;;;;4.22;3.10;;;17.70;99.90;;;;;;4978607;28;20093;-74
2022/06/26 04:26:31;;;;;;;6.13;3.10;;;17.70;99.90;;;;;;4978680;28;20049;-74
2022/06/26 04:28:56;;;;;;;4.32;3.10;;;17.70;99.90;;;;;;4978474;28;20042;-74
2022/06/26 04:31:22;;;;;;;5.03;3.28;;;17.70;99.90;;;;;;4978696;28;20026;-74
2022/06/26 04:33:47;;;;;;;5.25;3.35;;;17.70;99.90;;;;;;4962353;28;20398;-74
2022/06/26 04:36:13;;;;;;;5.72;3.35;;;17.70;99.90;;;;;;4978620;28;20042;-74
2022/06/26 04:38:39;;;;;;;7.07;3.75;;;17.70;99.90;;;;;;4979191;28;20372;-74
2022/06/26 04:41:31;;;;;;;4.90;3.10;;;17.70;99.90;;;;;;4978622;28;20411;-74
2022/06/26 04:43:50;;;;;;;6.45;3.75;;;17.70;99.90;;;;;;4978158;28;20047;-74
2022/06/26 04:46:15;;;;;;;3.60;3.00;;;17.70;99.90;;;;;;4962426;28;20046;-74
2022/06/26 04:48:41;;;;;;;6.35;3.53;;;17.60;99.90;;;;;;4978221;28;20128;-74
2022/06/26 04:51:06;;;;;;;5.43;3.55;;;17.70;99.90;;;;;;4977979;28;20069;-74
2022/06/26 04:53:32;;;;;;;4.40;3.20;;;17.70;99.90;;;;;;4978502;28;20038;-74
2022/06/26 04:55:57;;;;;;;6.35;2.97;;;17.70;99.90;;;;;;4978031;28;20514;-74
2022/06/26 04:58:23;;;;;;;4.22;3.40;;;17.80;99.90;;;;;;4978007;28;20049;-74
2022/06/26 05:00:49;;;;;;;4.30;3.20;;;17.80;99.90;;;;;;4978169;28;20042;-74
2022/06/26 05:03:14;;;;;;;5.78;3.30;;;17.90;99.90;;;;;;4977903;28;20067;-74
2022/06/26 05:05:40;;;;;;;6.65;4.32;;;17.90;99.90;;;;;;4978050;28;20133;-74
2022/06/26 05:08:05;;;;;;;5.47;3.60;;;17.90;99.90;;;;;;4961699;28;20081;-74
2022/06/26 05:10:31;;;;;;;6.43;4.10;;;18.00;99.90;;;;;;4977667;28;20042;-74
2022/06/26 05:12:56;;;;;;;7.32;4.50;;;18.00;99.90;;;;;;4977687;28;20039;-74
2022/06/26 05:15:22;;;;;;;6.15;4.72;;;18.00;99.90;;;;;;4961550;28;20043;-74
2022/06/26 05:17:47;;;;;;;5.72;4.93;;;18.10;99.90;;;;;;4977881;28;20042;-74
2022/06/26 05:20:13;;;;;;;7.32;5.55;;;18.20;99.90;;;;;;4977492;28;20486;-74
2022/06/26 05:22:39;;;;;;;6.60;4.70;;;18.20;99.90;;;;;;4977626;28;20053;-74
2022/06/26 05:25:05;;;;;;;5.65;4.88;;;18.20;99.90;;;;;;4977929;28;20060;-74
2022/06/26 05:27:31;;;;;;;7.82;6.00;;;18.20;99.90;;;;;;4961324;28;20146;-74
2022/06/26 05:29:56;;;;;;;5.93;5.32;;;18.20;99.90;;;;;;4961702;28;20070;-74
2022/06/26 05:32:22;;;;;;;6.65;5.43;;;18.10;99.90;;;;;;4977461;28;20049;-74
2022/06/26 05:34:47;;;;;;;7.07;5.50;;;18.10;99.90;;;;;;4977349;28;20045;-74
2022/06/26 05:37:13;;;;;;;7.05;5.55;;;18.10;99.90;;;;;;4977217;28;20042;-74
2022/06/26 05:39:38;;;;;;;9.25;6.78;;;18.10;99.90;;;;;;4977410;28;20047;-74
2022/06/26 05:42:04;;;;;;;8.05;6.40;;;18.10;99.90;;;;;;4977330;28;20039;-74
2022/06/26 05:44:30;;;;;;;11.80;8.38;;;18.10;99.90;;;;;;4977282;28;20053;-74
2022/06/26 05:46:55;;;;;;;12.02;8.05;;;18.10;99.90;;;;;;4976985;28;20402;-74
2022/06/26 05:49:21;;;;;;;9.63;8.60;;;18.10;99.90;;;;;;4976995;28;20038;-74
2022/06/26 05:51:47;;;;;;;10.70;9.63;;;18.00;99.90;;;;;;4976867;28;20141;-74
2022/06/26 05:54:12;;;;;;;9.98;8.98;;;18.10;99.90;;;;;;4976911;28;20038;-74
2022/06/26 05:56:38;;;;;;;10.95;9.48;;;18.10;99.90;;;;;;4977286;28;20097;-74
2022/06/26 05:59:03;;;;;;;10.45;8.63;;;18.10;99.90;;;;;;4976898;28;20041;-74
2022/06/26 06:01:29;;;;;;;9.70;8.80;;;18.10;99.90;;;;;;4976787;28;20034;-74
2022/06/26 06:03:54;;;;;;;9.85;8.18;;;18.10;99.90;;;;;;4976858;28;20042;-75
2022/06/26 06:06:20;;;;;;;9.32;8.38;;;18.10;99.90;;;;;;4960910;28;20047;-75
2022/06/26 06:08:46;;;;;;;11.52;8.52;;;18.10;99.90;;;;;;4960603;28;20039;-75
2022/06/26 06:11:11;;;;;;;12.70;9.00;;;18.10;99.90;;;;;;4976658;28;20554;-75
2022/06/26 06:13:37;;;;;;;12.20;10.00;;;18.20;99.90;;;;;;4976947;28;20038;-74
2022/06/26 06:16:04;;;;;;;12.18;10.27;;;18.20;99.90;;;;;;4976680;28;20517;-75
2022/06/26 06:18:30;;;;;;;13.45;11.90;;;18.40;99.90;;;;;;4976730;28;20050;-75
2022/06/26 06:20:55;;;;;;;17.10;12.15;;;18.40;99.90;;;;;;4976779;28;20050;-76
2022/06/26 06:23:21;;;;;;;14.23;12.73;;;18.50;99.90;;;;;;4976568;28;20053;-74
2022/06/26 06:25:47;;;;;;;13.63;11.50;;;18.60;99.90;;;;;;4976563;28;20034;-75
2022/06/26 06:28:12;;;;;;;15.52;12.95;;;18.60;99.90;;;;;;4976458;28;20038;-74
2022/06/26 06:30:38;;;;;;;14.90;13.35;;;18.70;99.90;;;;;;4976499;28;20038;-75
2022/06/26 06:33:04;;;;;;;15.43;13.82;;;18.70;99.90;;;;;;4976756;28;20041;-75
2022/06/26 06:35:29;;;;;;;15.65;13.20;;;18.80;99.90;;;;;;4976690;28;20041;-74
2022/06/26 06:37:55;;;;;;;13.98;12.57;;;18.80;99.90;;;;;;4976612;28;20543;-75
2022/06/26 06:40:21;;;;;;;14.65;12.75;;;18.80;99.90;;;;;;4976304;28;20491;-74
2022/06/26 06:42:46;;;;;;;14.45;12.10;;;18.80;99.90;;;;;;4976396;28;20046;-73
2022/06/26 06:45:12;;;;;;;14.30;12.90;;;18.80;99.90;;;;;;4975551;28;20077;-73
2022/06/26 06:47:38;;;;;;;15.82;13.30;;;18.80;99.90;;;;;;4960604;28;20039;-74
2022/06/26 06:50:04;;;;;;;16.27;14.43;;;18.70;99.90;;;;;;4960249;28;20384;-72
2022/06/26 06:52:30;;;;;;;14.82;13.25;;;18.70;99.90;;;;;;4960032;28;20045;-72
2022/06/26 06:54:56;;;;;;;17.98;14.73;;;18.60;99.90;;;;;;4960076;28;20042;-72
2022/06/26 06:57:21;;;;;;;18.17;15.43;;;18.70;99.90;;;;;;4976801;28;20125;-71
2022/06/26 06:59:47;;;;;;;16.67;14.63;;;18.60;99.90;;;;;;4976298;28;20495;-71
2022/06/26 07:02:12;;;;;;;16.60;14.88;;;18.70;99.90;;;;;;4976243;28;20070;-71
2022/06/26 07:04:38;;;;;;;17.17;15.38;;;18.90;99.90;;;;;;4960371;28;20034;-72
2022/06/26 07:07:04;;;;;;;17.48;15.68;;;19.00;99.90;;;;;;4976298;28;20049;-72
2022/06/26 07:09:30;;;;;;;16.58;14.85;;;19.10;99.90;;;;;;4976263;28;20042;-73
2022/06/26 07:11:56;;;;;;;16.73;14.93;;;19.20;99.90;;;;;;4976290;28;20549;-73
2022/06/26 07:14:21;;;;;;;19.60;14.63;;;19.30;99.90;;;;;;4976191;28;20046;-73
2022/06/26 07:16:49;;;;;;;19.25;16.20;;;19.30;99.90;;;;;;4976294;28;20089;-73
2022/06/26 07:19:14;;;;;;;17.30;15.10;;;19.30;99.90;;;;;;4975969;28;20498;-73
2022/06/26 07:21:43;;;;;;;17.55;15.43;;;19.30;99.90;;;;;;4976103;28;20042;-73
2022/06/26 07:24:09;;;;;;;17.70;15.63;;;19.40;99.90;;;;;;4975983;28;20049;-73
2022/06/26 07:26:35;;;;;;;17.65;15.85;;;19.50;99.90;;;;;;4976069;28;20125;-73
2022/06/26 07:29:01;;;;;;;20.25;16.48;;;19.50;99.90;;;;;;4959893;28;20145;-73
2022/06/26 07:31:26;;;;;;;17.40;15.60;;;19.50;99.90;;;;;;4975875;28;20042;-73
2022/06/26 07:36:36;;;;;;;18.52;15.65;;;19.50;99.90;;;;;;4975792;28;20491;-73
2022/06/26 07:39:01;;;;;;;16.70;14.95;;;19.60;99.90;;;;;;4975805;28;20074;-73
2022/06/26 07:41:27;;;;;;;18.38;16.50;;;19.80;99.90;;;;;;4959589;28;20042;-72
2022/06/26 07:43:53;;;;;;;17.08;15.05;;;19.80;99.90;;;;;;4975764;28;20034;-72
2022/06/26 07:46:18;;;;;;;16.52;14.82;;;19.80;99.90;;;;;;4959930;28;20038;-72
2022/06/26 07:48:44;;;;;;;16.98;15.18;;;19.80;99.90;;;;;;4975642;28;20410;-73
2022/06/26 07:51:10;;;;;;;16.05;14.40;;;19.90;99.90;;;;;;4975512;28;20146;-73
2022/06/26 07:53:36;;;;;;;17.50;14.55;;;20.00;99.90;;;;;;4975604;28;20030;-73
2022/06/26 07:56:03;;;;;;;16.02;14.32;;;20.10;99.90;;;;;;4976185;28;20117;-72
2022/06/26 07:58:29;;;;;;;15.38;13.77;;;20.10;99.90;;;;;;4979233;28;20061;-72
2022/06/26 08:00:55;;;;;;;15.73;14.00;;;20.00;99.90;;;;;;4963160;28;20046;-72
2022/06/26 08:03:20;;;;;;;14.93;13.40;;;20.00;99.90;;;;;;4979163;28;20038;-72
2022/06/26 08:05:49;;;;;;;14.40;13.05;;;20.00;99.90;;;;;;4963123;28;20120;-72
2022/06/26 08:08:14;;;;;;;15.93;14.23;;;20.10;99.90;;;;;;4978868;28;20092;-72
2022/06/26 08:10:40;;;;;;;14.43;12.38;;;20.40;99.90;;;;;;4979278;28;20129;-73
2022/06/26 08:13:07;;;;;;;12.45;11.15;;;20.40;99.90;;;;;;4978894;28;20388;-73
2022/06/26 08:15:34;;;;;;;13.48;10.13;;;20.40;99.90;;;;;;4979990;28;20050;-72
2022/06/26 08:18:00;;;;;;;11.45;9.88;;;20.40;99.90;;;;;;4978870;28;20054;-72
2022/06/26 08:20:25;;;;;;;13.30;9.85;;;20.30;99.90;;;;;;4978540;28;20034;-72
2022/06/26 08:22:51;;;;;;;10.48;9.40;;;20.50;99.90;;;;;;4978680;28;20042;-72
2022/06/26 08:25:16;;;;;;;9.50;7.72;;;20.60;99.90;;;;;;4962781;28;20046;-72
2022/06/26 08:27:42;;;;;;;11.95;8.40;;;20.80;99.90;;;;;;4996390;28;20486;-72
2022/06/26 08:30:09;;;;;;;8.38;7.10;;;21.00;99.90;;;;;;4978834;28;20045;-72
2022/06/26 08:32:36;;;;;;;8.77;6.75;;;21.20;99.90;;;;;;4978552;28;20117;-72
2022/06/26 08:35:03;;;;;;;7.85;6.25;;;21.40;99.90;;;;;;4978467;28;20042;-72
2022/06/26 08:37:29;;;;;;;7.97;5.20;;;21.70;99.90;;;;;;4996340;28;20049;-72
2022/06/26 08:39:54;;;;;;;6.28;4.00;;;21.90;99.90;;;;;;4996379;28;20038;-72
2022/06/26 08:42:21;;;;;;;7.15;4.40;;;22.10;99.90;;;;;;4978299;28;20046;-72
2022/06/26 08:44:47;;;;;;;5.35;2.88;;;22.00;99.90;;;;;;4978460;28;20038;-72
2022/06/26 08:47:16;;;;;;;7.68;3.53;;;22.20;99.90;;;;;;4978626;28;20046;-72
2022/06/26 08:49:42;;;;;;;6.95;3.70;;;22.30;99.90;;;;;;4962430;28;20053;-72
2022/06/26 08:52:12;;;;;;;4.53;2.40;;;22.50;99.90;;;;;;4962195;28;20118;-72
2022/06/26 08:54:39;;;;;;;5.57;2.40;;;22.70;99.90;;;;;;4978247;28;20392;-72
2022/06/26 08:57:05;;;;;;;3.72;1.70;;;22.80;99.90;;;;;;4994750;28;20053;-72
2022/06/26 08:59:30;;;;;;;6.20;2.63;;;23.00;99.90;;;;;;4978208;28;20054;-72
2022/06/26 09:01:56;;;;;;;5.15;2.85;;;23.10;99.90;;;;;;4977907;28;20104;-72
2022/06/26 09:04:22;;;;;;;6.25;2.17;;;23.10;99.90;;;;;;4978041;28;20056;-72
2022/06/26 09:06:48;;;;;;;5.53;3.10;;;23.20;99.90;;;;;;4978045;28;20487;-72
2022/06/26 09:09:17;;;;;;;4.82;3.00;;;23.20;99.90;;;;;;4993586;28;20057;-72
2022/06/26 09:11:44;;;;;;;6.30;2.78;;;23.30;99.90;;;;;;4977881;28;20113;-70
2022/06/26 09:14:11;;;;;;;3.65;2.13;;;23.40;99.90;;;;;;4993956;28;20145;-71
2022/06/26 09:16:39;;;;;;;4.82;2.40;;;23.40;99.90;;;;;;4995362;28;20062;-71
2022/06/26 09:19:27;;;;;;;3.83;2.75;;;23.40;99.90;;;;;;4977824;28;20117;-72
2022/06/26 09:22:08;;;;;;;2.88;1.88;;;23.50;99.90;;;;;;4977797;28;20129;-72
2022/06/26 09:24:36;;;;;;;3.40;2.38;;;23.70;99.90;;;;;;4994009;28;20482;-72
2022/06/26 09:27:10;;;;;;;5.18;2.67;;;23.60;99.90;;;;;;4977406;28;20544;-72
2022/06/26 09:29:36;;;;;;;5.03;3.28;;;23.60;99.90;;;;;;4977704;28;20050;-72
2022/06/26 09:32:13;;;;;;;5.55;2.72;;;23.70;99.90;;;;;;4977816;28;20065;-72
2022/06/26 09:34:47;;;;;;;3.85;2.15;;;23.60;99.90;;;;;;4993764;28;20048;-72
2022/06/26 09:37:13;;;;;;;4.38;2.30;;;23.70;99.90;;;;;;4977267;28;20053;-71
2022/06/26 09:39:38;;;;;;;3.50;2.40;;;23.70;99.90;;;;;;4977228;28;20046;-71
2022/06/26 09:42:25;;;;;;;5.75;2.28;;;23.80;99.90;;;;;;4977651;28;20049;-72
2022/06/26 09:44:52;;;;;;;9.45;2.50;;;23.90;99.90;;;;;;4976944;28;20387;-72
2022/06/26 09:47:26;;;;;;;4.22;1.98;;;23.90;99.90;;;;;;4961153;28;20052;-72
2022/06/26 09:49:54;;;;;;;7.45;2.20;;;23.90;99.90;;;;;;4977184;28;20053;-72
2022/06/26 09:52:22;;;;;;;4.05;2.17;;;23.80;99.90;;;;;;4993278;28;20487;-72
2022/06/26 09:54:48;;;;;;;3.88;2.20;;;23.70;99.90;;;;;;4977450;28;20042;-72
2022/06/26 09:57:16;;;;;;;5.07;2.55;;;23.70;99.90;;;;;;4976868;28;20081;-72
2022/06/26 09:59:42;;;;;;;3.92;2.35;;;23.60;99.90;;;;;;4977000;28;20418;-72
2022/06/26 10:07:47;;;;;;;2.90;1.85;;;23.80;99.90;;;;;;4976852;28;20054;-72
2022/06/26 10:10:14;;;;;;;4.28;2.22;;;23.80;99.90;;;;;;4976634;28;20049;-72
2022/06/26 10:12:41;;;;;;;4.63;1.75;;;23.80;99.90;;;;;;4976649;28;20045;-72
2022/06/26 10:15:09;;;;;;;3.75;1.65;;;23.60;99.90;;;;;;4976869;28;20038;-71
2022/06/26 10:17:53;;;;;;;3.85;2.03;;;23.70;99.90;;;;;;4976701;28;20121;-71
2022/06/26 10:20:22;;;;;;;4.18;1.40;;;23.80;99.90;;;;;;4976062;28;20042;-71
2022/06/26 10:22:47;;;;;;;3.47;1.65;;;24.00;99.90;;;;;;4976935;28;20117;-71
2022/06/26 10:25:24;;;;;;;2.92;1.40;;;24.00;99.90;;;;;;4976512;28;20125;-72
2022/06/26 10:27:50;;;;;;;4.45;1.40;;;23.90;99.90;;;;;;4976455;28;20408;-72
2022/06/26 10:30:18;;;;;;;4.90;1.80;;;23.80;99.90;;;;;;4992529;28;20034;-72
2022/06/26 10:32:45;;;;;;;2.42;1.52;;;23.70;99.90;;;;;;4976388;28;20118;-72
2022/06/26 10:35:12;;;;;;;4.13;1.65;;;23.60;99.90;;;;;;4960351;28;20077;-72
2022/06/26 10:37:39;;;;;;;6.05;1.90;;;23.50;99.90;;;;;;4992562;28;20093;-73
2022/06/26 10:42:52;;;;;;;5.13;1.90;;;23.40;99.90;;;;;;4976340;28;20121;-72
2022/06/26 10:43:03;;;;;;;4.28;1.73;;;23.30;99.90;;;;;;4976531;28;20058;-72
2022/06/26 10:45:31;;;;;;;3.63;1.55;;;23.20;99.90;;;;;;4976480;28;20045;-72
2022/06/26 10:47:59;;;;;;;3.92;1.70;;;23.20;99.90;;;;;;4976321;28;20142;-72
2022/06/26 10:50:34;;;;;;;3.72;1.55;;;23.10;99.90;;;;;;4993917;28;20046;-72
2022/06/26 10:53:28;;;;;;;3.80;1.88;;;23.10;99.90;;;;;;4976329;28;20035;-72
2022/06/26 10:55:58;;;;;;;7.43;1.90;;;23.00;99.90;;;;;;4992395;28;20129;-72
2022/06/26 10:58:30;;;;;;;5.45;2.10;;;23.00;99.90;;;;;;4992425;28;20074;-72
2022/06/26 11:00:57;;;;;;;;;;;23.00;99.90;;;;;;4976554;28;20077;-72
2022/06/26 11:03:23;;;;;;;4.65;1.90;;;23.00;99.90;;;;;;4976308;28;19918;-73
2022/06/26 11:06:01;;;;;;;5.18;1.70;;;23.10;99.90;;;;;;4992314;28;20101;-73
2022/06/26 11:08:37;;;;;;;4.78;1.90;;;23.30;99.90;;;;;;4976207;28;20096;-73
2022/06/26 11:11:31;;;;;;;5.22;2.10;;;23.50;99.90;;;;;;4960222;28;20509;-73
2022/06/26 11:14:01;;;;;;;4.70;2.03;;;23.80;99.90;;;;;;4966472;28;20050;-73
2022/06/26 11:16:32;;;;;;;4.68;1.90;;;24.00;99.90;;;;;;4976408;28;20027;-74
2022/06/26 11:18:59;;;;;;;5.90;1.90;;;24.10;99.90;;;;;;4976336;28;20050;-74
2022/06/26 11:21:26;;;;;;;5.18;2.10;;;24.20;99.90;;;;;;4992393;28;20042;-74
2022/06/26 11:23:53;;;;;;;4.82;1.40;;;24.10;99.90;;;;;;4976106;28;20054;-74
2022/06/26 11:26:21;;;;;;;4.72;1.77;;;24.10;99.90;;;;;;4976004;28;20057;-74
2022/06/26 11:28:54;;;;;;;5.35;1.67;;;24.00;99.90;;;;;;4975875;28;20142;-72
2022/06/26 11:31:23;;;;;;;4.63;1.60;;;24.10;99.90;;;;;;4994557;28;20074;-72
2022/06/26 11:33:48;;;;;;;5.45;2.17;;;24.00;99.90;;;;;;4979630;28;20046;-72
2022/06/26 11:36:16;;;;;;;4.47;2.05;;;24.00;99.90;;;;;;4979571;28;20060;-72
2022/06/26 11:38:53;;;;;;;5.28;1.67;;;24.00;99.90;;;;;;4979768;28;20050;-72
2022/06/26 11:41:20;;;;;;;4.57;1.65;;;24.00;99.90;;;;;;4995791;28;20042;-71
2022/06/26 11:43:55;;;;;;;8.00;1.80;;;24.10;99.90;;;;;;4995664;28;20076;-72
2022/06/26 11:46:21;;;;;;;5.88;2.22;;;24.20;99.90;;;;;;4995850;28;20406;-72
2022/06/26 11:48:53;;;;;;;3.65;1.70;;;24.20;99.90;;;;;;4979278;28;20043;-72
2022/06/26 11:51:21;;;;;;;3.35;1.60;;;24.30;99.90;;;;;;4995850;28;20042;-71
2022/06/26 11:53:49;;;;;;;5.70;1.77;;;24.30;99.90;;;;;;4979415;28;20113;-71
2022/06/26 11:56:31;;;;;;;4.38;1.80;;;24.30;99.90;;;;;;4995436;28;20101;-72
2022/06/26 11:58:58;;;;;;;6.70;1.95;;;24.30;99.90;;;;;;4979464;28;20046;-71
2022/06/26 12:01:35;;;;;;;5.07;1.73;;;24.20;99.90;;;;;;4979222;28;20057;-71
2022/06/26 12:04:01;;;;;;;3.70;1.52;;;24.10;99.90;;;;;;4996234;28;20053;-71
2022/06/26 12:06:32;;;;;;;5.45;1.98;;;24.10;99.90;;;;;;4996492;28;20034;-71
2022/06/26 12:09:14;;;;;;;5.15;2.13;;;24.10;99.90;;;;;;4979002;28;20057;-71
2022/06/26 12:11:42;;;;;;;5.80;2.30;;;24.10;99.70;;;;;;4979301;28;20125;-72
2022/06/26 12:14:12;;;;;;;7.20;2.20;;;24.10;99.90;;;;;;4978842;28;20038;-72
2022/06/26 12:16:54;;;;;;;5.45;1.80;;;24.20;99.90;;;;;;4978835;28;20546;-72
2022/06/26 12:19:21;;;;;;;6.13;1.75;;;24.10;99.90;;;;;;4995402;28;20526;-73
2022/06/26 12:21:53;;;;;;;4.97;1.60;;;24.20;99.90;;;;;;4962507;28;20054;-72
2022/06/26 12:24:20;;;;;;;5.18;1.90;;;24.20;99.90;;;;;;4995517;28;20105;-72
2022/06/26 12:26:46;;;;;;;7.40;2.13;;;24.10;99.90;;;;;;4962729;28;20043;-73
2022/06/26 12:29:17;;;;;;;5.22;1.98;;;23.90;99.90;;;;;;4978653;28;20050;-72
2022/06/26 12:31:43;;;;;;;3.75;2.10;;;23.80;99.90;;;;;;4978605;28;20172;-72
2022/06/26 12:34:09;;;;;;;7.70;2.10;;;23.70;99.90;;;;;;4978695;28;20143;-72
2022/06/26 12:36:37;;;;;;;5.85;2.10;;;23.70;99.90;;;;;;4978348;28;20046;-72
2022/06/26 12:39:04;;;;;;;5.13;2.05;;;23.70;99.90;;;;;;4978476;28;20046;-71
2022/06/26 12:41:29;;;;;;;6.65;2.10;;;23.70;99.90;;;;;;4978530;28;20050;-72
2022/06/26 12:43:57;;;;;;;4.03;1.80;;;23.70;99.90;;;;;;4961251;28;20048;-72
2022/06/26 12:46:23;;;;;;;6.43;1.80;;;23.60;99.90;;;;;;4978624;28;20475;-71
2022/06/26 12:48:50;;;;;;;4.80;2.05;;;23.60;99.90;;;;;;4962135;28;20611;-71
2022/06/26 12:51:16;;;;;;;4.63;2.13;;;23.50;99.90;;;;;;4978017;28;20089;-71
2022/06/26 12:53:43;;;;;;;4.80;2.25;;;23.40;99.90;;;;;;4994629;28;20556;-71